sensor_id;sensor_type;location;lat;lon;timestamp;P1;durP1;ratioP1;P2;durP2;ratioP2
73585;SDS011;61865;50.232;18.614;2023-05-29T00:01:18;10.48;;;6.32;;
73585;SDS011;61865;50.232;18.614;2023-05-29T00:03:41;8.43;;;5.93;;
73585;SDS011;61865;50.232;18.614;2023-05-29T00:06:03;12.63;;;7.22;;
73585;SDS011;61865;50.232;18.614;2023-05-29T00:08:26;21.48;;;9.80;;
73585;SDS011;61865;50.232;18.614;2023-05-29T00:10:49;16.02;;;8.85;;
73585;SDS011;61865;50.232;18.614;2023-05-29T00:13:11;22.02;;;9.60;;
73585;SDS011;61865;50.232;18.614;2023-05-29T00:15:33;11.35;;;6.93;;
73585;SDS011;61865;50.232;18.614;2023-05-29T00:17:55;10.32;;;6.53;;
73585;SDS011;61865;50.232;18.614;2023-05-29T00:20:17;11.20;;;6.28;;
73585;SDS011;61865;50.232;18.614;2023-05-29T00:22:39;11.35;;;6.70;;
73585;SDS011;61865;50.232;18.614;2023-05-29T00:25:02;12.35;;;6.95;;
73585;SDS011;61865;50.232;18.614;2023-05-29T00:27:25;10.93;;;6.25;;
73585;SDS011;61865;50.232;18.614;2023-05-29T00:29:47;14.98;;;6.32;;
73585;SDS011;61865;50.232;18.614;2023-05-29T00:32:09;10.43;;;6.07;;
73585;SDS011;61865;50.232;18.614;2023-05-29T00:34:31;14.25;;;6.88;;
73585;SDS011;61865;50.232;18.614;2023-05-29T00:36:53;16.50;;;8.60;;
73585;SDS011;61865;50.232;18.614;2023-05-29T00:39:15;14.10;;;7.32;;
73585;SDS011;61865;50.232;18.614;2023-05-29T00:41:38;9.65;;;6.38;;
73585;SDS011;61865;50.232;18.614;2023-05-29T00:44:01;11.75;;;5.90;;
73585;SDS011;61865;50.232;18.614;2023-05-29T00:46:23;13.73;;;6.88;;
73585;SDS011;61865;50.232;18.614;2023-05-29T00:48:45;13.48;;;7.57;;
73585;SDS011;61865;50.232;18.614;2023-05-29T00:51:09;15.20;;;8.43;;
73585;SDS011;61865;50.232;18.614;2023-05-29T00:53:33;14.38;;;9.73;;
73585;SDS011;61865;50.232;18.614;2023-05-29T00:55:55;14.65;;;8.80;;
73585;SDS011;61865;50.232;18.614;2023-05-29T00:58:18;15.65;;;8.25;;
73585;SDS011;61865;50.232;18.614;2023-05-29T01:00:43;17.45;;;8.07;;
73585;SDS011;61865;50.232;18.614;2023-05-29T01:03:05;14.32;;;7.80;;
73585;SDS011;61865;50.232;18.614;2023-05-29T01:05:28;12.98;;;7.60;;
73585;SDS011;61865;50.232;18.614;2023-05-29T01:07:51;17.65;;;8.43;;
73585;SDS011;61865;50.232;18.614;2023-05-29T01:10:13;17.77;;;8.10;;
73585;SDS011;61865;50.232;18.614;2023-05-29T01:12:38;17.50;;;8.98;;
73585;SDS011;61865;50.232;18.614;2023-05-29T01:15:07;21.08;;;11.30;;
73585;SDS011;61865;50.232;18.614;2023-05-29T01:17:40;17.50;;;9.23;;
73585;SDS011;61865;50.232;18.614;2023-05-29T01:20:11;18.52;;;8.93;;
73585;SDS011;61865;50.232;18.614;2023-05-29T01:22:49;14.57;;;8.73;;
73585;SDS011;61865;50.232;18.614;2023-05-29T01:25:29;17.08;;;7.63;;
73585;SDS011;61865;50.232;18.614;2023-05-29T01:28:06;19.25;;;9.73;;
73585;SDS011;61865;50.232;18.614;2023-05-29T01:30:30;16.38;;;9.57;;
73585;SDS011;61865;50.232;18.614;2023-05-29T01:32:54;13.80;;;7.68;;
73585;SDS011;61865;50.232;18.614;2023-05-29T01:35:16;11.98;;;8.07;;
73585;SDS011;61865;50.232;18.614;2023-05-29T01:37:38;16.33;;;8.75;;
73585;SDS011;61865;50.232;18.614;2023-05-29T01:40:00;15.30;;;8.07;;
73585;SDS011;61865;50.232;18.614;2023-05-29T01:42:24;13.30;;;7.47;;
73585;SDS011;61865;50.232;18.614;2023-05-29T01:44:49;12.25;;;7.32;;
73585;SDS011;61865;50.232;18.614;2023-05-29T01:47:11;14.20;;;6.45;;
73585;SDS011;61865;50.232;18.614;2023-05-29T01:49:34;12.50;;;7.28;;
73585;SDS011;61865;50.232;18.614;2023-05-29T01:51:57;12.82;;;7.93;;
73585;SDS011;61865;50.232;18.614;2023-05-29T01:54:20;12.57;;;7.32;;
73585;SDS011;61865;50.232;18.614;2023-05-29T01:56:42;11.13;;;6.80;;
73585;SDS011;61865;50.232;18.614;2023-05-29T01:59:05;14.73;;;7.65;;
73585;SDS011;61865;50.232;18.614;2023-05-29T02:01:29;17.17;;;7.47;;
73585;SDS011;61865;50.232;18.614;2023-05-29T02:03:52;12.85;;;8.10;;
73585;SDS011;61865;50.232;18.614;2023-05-29T02:06:14;14.52;;;7.82;;
73585;SDS011;61865;50.232;18.614;2023-05-29T02:08:36;14.80;;;8.52;;
73585;SDS011;61865;50.232;18.614;2023-05-29T02:10:58;14.07;;;7.97;;
73585;SDS011;61865;50.232;18.614;2023-05-29T02:13:20;9.38;;;6.20;;
73585;SDS011;61865;50.232;18.614;2023-05-29T02:15:42;15.45;;;8.60;;
73585;SDS011;61865;50.232;18.614;2023-05-29T02:18:07;17.80;;;8.90;;
73585;SDS011;61865;50.232;18.614;2023-05-29T02:20:31;11.95;;;7.30;;
73585;SDS011;61865;50.232;18.614;2023-05-29T02:22:53;9.55;;;6.05;;
73585;SDS011;61865;50.232;18.614;2023-05-29T02:25:15;13.38;;;6.63;;
73585;SDS011;61865;50.232;18.614;2023-05-29T02:27:36;9.70;;;6.15;;
73585;SDS011;61865;50.232;18.614;2023-05-29T02:29:58;8.63;;;5.97;;
73585;SDS011;61865;50.232;18.614;2023-05-29T02:32:20;9.48;;;6.07;;
73585;SDS011;61865;50.232;18.614;2023-05-29T02:34:44;9.35;;;5.30;;
73585;SDS011;61865;50.232;18.614;2023-05-29T02:37:06;10.23;;;5.68;;
73585;SDS011;61865;50.232;18.614;2023-05-29T02:39:28;9.20;;;6.07;;
73585;SDS011;61865;50.232;18.614;2023-05-29T02:41:50;11.57;;;6.28;;
73585;SDS011;61865;50.232;18.614;2023-05-29T02:44:12;7.60;;;5.25;;
73585;SDS011;61865;50.232;18.614;2023-05-29T02:46:34;10.27;;;6.13;;
73585;SDS011;61865;50.232;18.614;2023-05-29T02:48:56;9.30;;;5.30;;
73585;SDS011;61865;50.232;18.614;2023-05-29T02:51:19;9.25;;;5.32;;
73585;SDS011;61865;50.232;18.614;2023-05-29T02:53:41;11.20;;;4.82;;
73585;SDS011;61865;50.232;18.614;2023-05-29T02:56:04;6.43;;;4.10;;
73585;SDS011;61865;50.232;18.614;2023-05-29T02:58:27;9.75;;;5.40;;
73585;SDS011;61865;50.232;18.614;2023-05-29T03:00:49;15.57;;;7.35;;
73585;SDS011;61865;50.232;18.614;2023-05-29T03:03:12;12.95;;;6.65;;
73585;SDS011;61865;50.232;18.614;2023-05-29T03:05:34;10.85;;;6.68;;
73585;SDS011;61865;50.232;18.614;2023-05-29T03:07:58;12.15;;;6.47;;
73585;SDS011;61865;50.232;18.614;2023-05-29T03:10:19;10.27;;;6.13;;
73585;SDS011;61865;50.232;18.614;2023-05-29T03:12:42;10.30;;;6.65;;
73585;SDS011;61865;50.232;18.614;2023-05-29T03:15:05;9.45;;;6.57;;
73585;SDS011;61865;50.232;18.614;2023-05-29T03:17:27;12.30;;;6.57;;
73585;SDS011;61865;50.232;18.614;2023-05-29T03:19:49;10.65;;;6.47;;
73585;SDS011;61865;50.232;18.614;2023-05-29T03:22:12;13.88;;;6.40;;
73585;SDS011;61865;50.232;18.614;2023-05-29T03:24:35;13.15;;;6.03;;
73585;SDS011;61865;50.232;18.614;2023-05-29T03:26:57;8.90;;;6.18;;
73585;SDS011;61865;50.232;18.614;2023-05-29T03:29:20;11.82;;;6.20;;
73585;SDS011;61865;50.232;18.614;2023-05-29T03:31:42;11.52;;;6.13;;
73585;SDS011;61865;50.232;18.614;2023-05-29T03:34:04;12.23;;;7.40;;
73585;SDS011;61865;50.232;18.614;2023-05-29T03:36:26;12.75;;;7.30;;
73585;SDS011;61865;50.232;18.614;2023-05-29T03:38:48;10.05;;;6.35;;
73585;SDS011;61865;50.232;18.614;2023-05-29T03:41:12;12.35;;;6.68;;
73585;SDS011;61865;50.232;18.614;2023-05-29T03:43:34;12.35;;;6.72;;
73585;SDS011;61865;50.232;18.614;2023-05-29T03:45:56;12.15;;;6.55;;
73585;SDS011;61865;50.232;18.614;2023-05-29T03:48:18;15.75;;;7.05;;
73585;SDS011;61865;50.232;18.614;2023-05-29T03:50:40;11.20;;;6.05;;
73585;SDS011;61865;50.232;18.614;2023-05-29T03:53:02;9.32;;;5.95;;
73585;SDS011;61865;50.232;18.614;2023-05-29T03:55:25;11.43;;;6.00;;
73585;SDS011;61865;50.232;18.614;2023-05-29T03:57:49;11.15;;;6.25;;
73585;SDS011;61865;50.232;18.614;2023-05-29T04:00:11;10.23;;;5.45;;
73585;SDS011;61865;50.232;18.614;2023-05-29T04:02:34;12.40;;;5.40;;
73585;SDS011;61865;50.232;18.614;2023-05-29T04:04:56;12.57;;;5.80;;
73585;SDS011;61865;50.232;18.614;2023-05-29T04:07:18;11.75;;;6.47;;
73585;SDS011;61865;50.232;18.614;2023-05-29T04:09:40;12.68;;;5.95;;
73585;SDS011;61865;50.232;18.614;2023-05-29T04:12:02;10.00;;;6.10;;
73585;SDS011;61865;50.232;18.614;2023-05-29T04:14:27;9.50;;;5.53;;
73585;SDS011;61865;50.232;18.614;2023-05-29T04:16:49;13.60;;;6.20;;
73585;SDS011;61865;50.232;18.614;2023-05-29T04:19:11;11.88;;;6.03;;
73585;SDS011;61865;50.232;18.614;2023-05-29T04:21:33;17.33;;;6.70;;
73585;SDS011;61865;50.232;18.614;2023-05-29T04:23:55;13.25;;;6.65;;
73585;SDS011;61865;50.232;18.614;2023-05-29T04:26:17;17.55;;;7.20;;
73585;SDS011;61865;50.232;18.614;2023-05-29T04:28:40;12.73;;;7.32;;
73585;SDS011;61865;50.232;18.614;2023-05-29T04:31:04;21.02;;;7.63;;
73585;SDS011;61865;50.232;18.614;2023-05-29T04:33:26;19.55;;;7.32;;
73585;SDS011;61865;50.232;18.614;2023-05-29T04:35:49;11.73;;;7.32;;
73585;SDS011;61865;50.232;18.614;2023-05-29T04:38:12;19.95;;;7.20;;
73585;SDS011;61865;50.232;18.614;2023-05-29T04:40:34;13.10;;;6.63;;
73585;SDS011;61865;50.232;18.614;2023-05-29T04:42:57;15.60;;;7.03;;
73585;SDS011;61865;50.232;18.614;2023-05-29T04:45:20;22.02;;;7.93;;
73585;SDS011;61865;50.232;18.614;2023-05-29T04:47:44;18.98;;;7.82;;
73585;SDS011;61865;50.232;18.614;2023-05-29T04:50:06;16.00;;;6.75;;
73585;SDS011;61865;50.232;18.614;2023-05-29T04:52:29;16.27;;;6.38;;
73585;SDS011;61865;50.232;18.614;2023-05-29T04:54:52;17.67;;;6.55;;
73585;SDS011;61865;50.232;18.614;2023-05-29T04:57:14;15.00;;;6.50;;
73585;SDS011;61865;50.232;18.614;2023-05-29T04:59:37;14.45;;;6.68;;
73585;SDS011;61865;50.232;18.614;2023-05-29T05:01:59;22.05;;;7.82;;
73585;SDS011;61865;50.232;18.614;2023-05-29T05:04:23;12.68;;;7.03;;
73585;SDS011;61865;50.232;18.614;2023-05-29T05:06:45;12.57;;;6.93;;
73585;SDS011;61865;50.232;18.614;2023-05-29T05:09:07;18.30;;;6.75;;
73585;SDS011;61865;50.232;18.614;2023-05-29T05:11:30;15.35;;;7.35;;
73585;SDS011;61865;50.232;18.614;2023-05-29T05:13:52;13.95;;;6.88;;
73585;SDS011;61865;50.232;18.614;2023-05-29T05:16:14;13.45;;;6.97;;
73585;SDS011;61865;50.232;18.614;2023-05-29T05:18:36;15.43;;;7.28;;
73585;SDS011;61865;50.232;18.614;2023-05-29T05:20:59;15.05;;;6.70;;
73585;SDS011;61865;50.232;18.614;2023-05-29T05:23:23;14.50;;;7.07;;
73585;SDS011;61865;50.232;18.614;2023-05-29T05:25:45;18.08;;;7.72;;
73585;SDS011;61865;50.232;18.614;2023-05-29T05:28:08;12.93;;;7.55;;
73585;SDS011;61865;50.232;18.614;2023-05-29T05:30:30;18.85;;;8.18;;
73585;SDS011;61865;50.232;18.614;2023-05-29T05:32:52;15.68;;;8.30;;
73585;SDS011;61865;50.232;18.614;2023-05-29T05:35:14;14.40;;;7.65;;
73585;SDS011;61865;50.232;18.614;2023-05-29T05:37:38;17.15;;;8.25;;
73585;SDS011;61865;50.232;18.614;2023-05-29T05:40:00;17.63;;;7.65;;
73585;SDS011;61865;50.232;18.614;2023-05-29T05:42:23;15.23;;;6.95;;
73585;SDS011;61865;50.232;18.614;2023-05-29T05:44:45;17.05;;;7.97;;
73585;SDS011;61865;50.232;18.614;2023-05-29T05:47:07;14.63;;;7.82;;
73585;SDS011;61865;50.232;18.614;2023-05-29T05:49:29;12.32;;;7.05;;
73585;SDS011;61865;50.232;18.614;2023-05-29T05:51:52;12.13;;;6.93;;
73585;SDS011;61865;50.232;18.614;2023-05-29T05:54:15;17.50;;;7.68;;
73585;SDS011;61865;50.232;18.614;2023-05-29T05:56:37;16.00;;;6.95;;
73585;SDS011;61865;50.232;18.614;2023-05-29T05:58:59;14.43;;;7.70;;
73585;SDS011;61865;50.232;18.614;2023-05-29T06:01:21;14.88;;;7.28;;
73585;SDS011;61865;50.232;18.614;2023-05-29T06:03:43;11.43;;;7.10;;
73585;SDS011;61865;50.232;18.614;2023-05-29T06:06:06;15.75;;;7.43;;
73585;SDS011;61865;50.232;18.614;2023-05-29T06:08:28;21.98;;;7.10;;
73585;SDS011;61865;50.232;18.614;2023-05-29T06:10:52;15.48;;;7.00;;
73585;SDS011;61865;50.232;18.614;2023-05-29T06:13:14;27.02;;;7.80;;
73585;SDS011;61865;50.232;18.614;2023-05-29T06:15:37;18.17;;;8.52;;
73585;SDS011;61865;50.232;18.614;2023-05-29T06:17:59;17.90;;;8.20;;
73585;SDS011;61865;50.232;18.614;2023-05-29T06:20:21;12.15;;;7.50;;
73585;SDS011;61865;50.232;18.614;2023-05-29T06:22:43;13.65;;;7.50;;
73585;SDS011;61865;50.232;18.614;2023-05-29T06:25:10;13.27;;;8.15;;
73585;SDS011;61865;50.232;18.614;2023-05-29T06:27:33;15.48;;;8.23;;
73585;SDS011;61865;50.232;18.614;2023-05-29T06:29:55;17.98;;;8.30;;
73585;SDS011;61865;50.232;18.614;2023-05-29T06:32:17;13.90;;;7.18;;
73585;SDS011;61865;50.232;18.614;2023-05-29T06:34:39;21.38;;;9.18;;
73585;SDS011;61865;50.232;18.614;2023-05-29T06:37:01;16.42;;;8.02;;
73585;SDS011;61865;50.232;18.614;2023-05-29T06:39:23;18.83;;;8.60;;
73585;SDS011;61865;50.232;18.614;2023-05-29T06:41:45;20.80;;;8.98;;
73585;SDS011;61865;50.232;18.614;2023-05-29T06:44:08;17.77;;;10.27;;
73585;SDS011;61865;50.232;18.614;2023-05-29T06:46:30;20.98;;;9.43;;
73585;SDS011;61865;50.232;18.614;2023-05-29T06:48:52;21.17;;;10.65;;
73585;SDS011;61865;50.232;18.614;2023-05-29T06:51:15;18.35;;;10.02;;
73585;SDS011;61865;50.232;18.614;2023-05-29T06:53:38;16.45;;;8.85;;
73585;SDS011;61865;50.232;18.614;2023-05-29T06:56:00;15.05;;;7.95;;
73585;SDS011;61865;50.232;18.614;2023-05-29T06:58:23;21.67;;;7.28;;
73585;SDS011;61865;50.232;18.614;2023-05-29T07:04:03;21.92;;;7.07;;
73585;SDS011;61865;50.232;18.614;2023-05-29T07:06:26;17.15;;;7.35;;
73585;SDS011;61865;50.232;18.614;2023-05-29T07:08:48;21.30;;;7.22;;
73585;SDS011;61865;50.232;18.614;2023-05-29T07:11:10;13.80;;;6.35;;
73585;SDS011;61865;50.232;18.614;2023-05-29T07:13:32;16.60;;;7.00;;
73585;SDS011;61865;50.232;18.614;2023-05-29T07:15:55;15.43;;;6.80;;
73585;SDS011;61865;50.232;18.614;2023-05-29T07:18:17;16.50;;;6.18;;
73585;SDS011;61865;50.232;18.614;2023-05-29T07:20:41;18.38;;;6.60;;
73585;SDS011;61865;50.232;18.614;2023-05-29T07:23:03;13.93;;;5.85;;
73585;SDS011;61865;50.232;18.614;2023-05-29T07:25:25;24.20;;;6.10;;
73585;SDS011;61865;50.232;18.614;2023-05-29T07:27:47;16.00;;;5.32;;
73585;SDS011;61865;50.232;18.614;2023-05-29T07:30:10;10.55;;;5.32;;
73585;SDS011;61865;50.232;18.614;2023-05-29T07:32:32;17.58;;;6.97;;
73585;SDS011;61865;50.232;18.614;2023-05-29T07:34:54;16.52;;;6.07;;
73585;SDS011;61865;50.232;18.614;2023-05-29T07:37:18;18.52;;;5.35;;
73585;SDS011;61865;50.232;18.614;2023-05-29T07:39:40;15.73;;;5.18;;
73585;SDS011;61865;50.232;18.614;2023-05-29T07:42:02;18.00;;;5.30;;
73585;SDS011;61865;50.232;18.614;2023-05-29T07:44:26;13.02;;;6.03;;
73585;SDS011;61865;50.232;18.614;2023-05-29T07:46:49;12.77;;;5.00;;
73585;SDS011;61865;50.232;18.614;2023-05-29T07:49:13;23.73;;;5.22;;
73585;SDS011;61865;50.232;18.614;2023-05-29T07:51:35;14.30;;;4.72;;
73585;SDS011;61865;50.232;18.614;2023-05-29T07:53:59;18.30;;;5.10;;
73585;SDS011;61865;50.232;18.614;2023-05-29T07:56:21;14.80;;;5.25;;
73585;SDS011;61865;50.232;18.614;2023-05-29T07:58:43;17.15;;;4.95;;
73585;SDS011;61865;50.232;18.614;2023-05-29T08:01:04;9.27;;;4.30;;
73585;SDS011;61865;50.232;18.614;2023-05-29T08:03:27;14.85;;;4.13;;
73585;SDS011;61865;50.232;18.614;2023-05-29T08:05:48;17.23;;;4.18;;
73585;SDS011;61865;50.232;18.614;2023-05-29T08:08:11;13.75;;;3.60;;
73585;SDS011;61865;50.232;18.614;2023-05-29T08:13:52;10.82;;;3.72;;
73585;SDS011;61865;50.232;18.614;2023-05-29T08:16:14;6.70;;;3.00;;
73585;SDS011;61865;50.232;18.614;2023-05-29T08:18:37;13.50;;;3.10;;
73585;SDS011;61865;50.232;18.614;2023-05-29T08:20:59;5.72;;;2.65;;
73585;SDS011;61865;50.232;18.614;2023-05-29T08:23:21;9.93;;;2.75;;
73585;SDS011;61865;50.232;18.614;2023-05-29T08:25:43;11.27;;;2.67;;
73585;SDS011;61865;50.232;18.614;2023-05-29T08:28:05;12.70;;;2.65;;
73585;SDS011;61865;50.232;18.614;2023-05-29T08:30:28;8.85;;;3.10;;
73585;SDS011;61865;50.232;18.614;2023-05-29T08:32:51;15.07;;;2.95;;
73585;SDS011;61865;50.232;18.614;2023-05-29T08:35:13;10.88;;;2.72;;
73585;SDS011;61865;50.232;18.614;2023-05-29T08:37:34;9.90;;;2.75;;
73585;SDS011;61865;50.232;18.614;2023-05-29T08:39:56;5.32;;;2.80;;
73585;SDS011;61865;50.232;18.614;2023-05-29T08:42:20;4.72;;;2.28;;
73585;SDS011;61865;50.232;18.614;2023-05-29T08:44:47;4.25;;;2.40;;
73585;SDS011;61865;50.232;18.614;2023-05-29T08:47:11;5.13;;;2.20;;
73585;SDS011;61865;50.232;18.614;2023-05-29T08:49:41;4.93;;;2.80;;
73585;SDS011;61865;50.232;18.614;2023-05-29T08:52:05;6.85;;;2.45;;
73585;SDS011;61865;50.232;18.614;2023-05-29T08:54:33;4.45;;;2.10;;
73585;SDS011;61865;50.232;18.614;2023-05-29T08:56:55;9.32;;;2.35;;
73585;SDS011;61865;50.232;18.614;2023-05-29T08:59:18;9.80;;;2.30;;
73585;SDS011;61865;50.232;18.614;2023-05-29T09:01:41;9.82;;;2.22;;
73585;SDS011;61865;50.232;18.614;2023-05-29T09:04:05;6.35;;;2.20;;
73585;SDS011;61865;50.232;18.614;2023-05-29T09:06:28;5.95;;;2.20;;
73585;SDS011;61865;50.232;18.614;2023-05-29T09:08:51;8.32;;;2.50;;
73585;SDS011;61865;50.232;18.614;2023-05-29T09:11:13;5.82;;;2.45;;
73585;SDS011;61865;50.232;18.614;2023-05-29T09:13:35;4.43;;;2.50;;
73585;SDS011;61865;50.232;18.614;2023-05-29T09:15:57;6.00;;;2.30;;
73585;SDS011;61865;50.232;18.614;2023-05-29T09:18:20;9.13;;;2.50;;
73585;SDS011;61865;50.232;18.614;2023-05-29T09:20:45;4.80;;;2.25;;
73585;SDS011;61865;50.232;18.614;2023-05-29T09:23:07;8.20;;;2.97;;
73585;SDS011;61865;50.232;18.614;2023-05-29T09:25:30;7.95;;;2.20;;
73585;SDS011;61865;50.232;18.614;2023-05-29T09:27:57;4.43;;;2.10;;
73585;SDS011;61865;50.232;18.614;2023-05-29T09:30:30;5.57;;;2.35;;
73585;SDS011;61865;50.232;18.614;2023-05-29T09:32:53;6.38;;;2.97;;
73585;SDS011;61865;50.232;18.614;2023-05-29T09:35:16;6.65;;;2.80;;
73585;SDS011;61865;50.232;18.614;2023-05-29T09:37:42;5.97;;;2.35;;
73585;SDS011;61865;50.232;18.614;2023-05-29T09:40:05;5.95;;;2.50;;
73585;SDS011;61865;50.232;18.614;2023-05-29T09:42:29;4.10;;;2.28;;
73585;SDS011;61865;50.232;18.614;2023-05-29T09:44:52;8.00;;;3.10;;
73585;SDS011;61865;50.232;18.614;2023-05-29T09:47:14;7.72;;;2.55;;
73585;SDS011;61865;50.232;18.614;2023-05-29T09:49:40;6.63;;;2.35;;
73585;SDS011;61865;50.232;18.614;2023-05-29T09:52:03;7.43;;;2.67;;
73585;SDS011;61865;50.232;18.614;2023-05-29T09:54:29;6.45;;;2.38;;
73585;SDS011;61865;50.232;18.614;2023-05-29T09:56:52;11.00;;;3.10;;
73585;SDS011;61865;50.232;18.614;2023-05-29T09:59:15;13.27;;;2.58;;
73585;SDS011;61865;50.232;18.614;2023-05-29T10:01:38;12.95;;;2.97;;
73585;SDS011;61865;50.232;18.614;2023-05-29T10:04:04;5.38;;;2.70;;
73585;SDS011;61865;50.232;18.614;2023-05-29T10:06:26;6.50;;;2.35;;
73585;SDS011;61865;50.232;18.614;2023-05-29T10:08:50;4.55;;;2.50;;
73585;SDS011;61865;50.232;18.614;2023-05-29T10:11:18;7.25;;;2.50;;
73585;SDS011;61865;50.232;18.614;2023-05-29T10:13:45;7.20;;;2.80;;
73585;SDS011;61865;50.232;18.614;2023-05-29T10:16:11;6.60;;;2.65;;
73585;SDS011;61865;50.232;18.614;2023-05-29T10:18:35;6.68;;;2.38;;
73585;SDS011;61865;50.232;18.614;2023-05-29T10:20:59;10.75;;;2.60;;
73585;SDS011;61865;50.232;18.614;2023-05-29T10:23:23;11.93;;;2.53;;
73585;SDS011;61865;50.232;18.614;2023-05-29T10:25:46;4.55;;;2.35;;
73585;SDS011;61865;50.232;18.614;2023-05-29T10:28:12;6.80;;;3.00;;
73585;SDS011;61865;50.232;18.614;2023-05-29T10:30:36;5.38;;;2.42;;
73585;SDS011;61865;50.232;18.614;2023-05-29T10:33:09;5.13;;;2.38;;
73585;SDS011;61865;50.232;18.614;2023-05-29T10:35:53;5.65;;;2.08;;
73585;SDS011;61865;50.232;18.614;2023-05-29T10:38:23;9.60;;;2.50;;
73585;SDS011;61865;50.232;18.614;2023-05-29T10:40:46;8.63;;;2.50;;
73585;SDS011;61865;50.232;18.614;2023-05-29T10:43:08;5.68;;;2.20;;
73585;SDS011;61865;50.232;18.614;2023-05-29T10:45:52;8.73;;;2.40;;
73585;SDS011;61865;50.232;18.614;2023-05-29T10:51:05;12.38;;;2.30;;
73585;SDS011;61865;50.232;18.614;2023-05-29T10:53:31;10.10;;;2.47;;
73585;SDS011;61865;50.232;18.614;2023-05-29T10:55:53;3.58;;;2.15;;
73585;SDS011;61865;50.232;18.614;2023-05-29T10:58:17;8.23;;;2.42;;
73585;SDS011;61865;50.232;18.614;2023-05-29T11:00:40;5.53;;;2.53;;
73585;SDS011;61865;50.232;18.614;2023-05-29T11:03:04;12.27;;;2.33;;
73585;SDS011;61865;50.232;18.614;2023-05-29T11:05:28;6.20;;;2.55;;
73585;SDS011;61865;50.232;18.614;2023-05-29T11:07:51;5.85;;;2.40;;
73585;SDS011;61865;50.232;18.614;2023-05-29T11:10:14;5.57;;;2.35;;
73585;SDS011;61865;50.232;18.614;2023-05-29T11:12:37;4.78;;;2.50;;
73585;SDS011;61865;50.232;18.614;2023-05-29T11:15:17;6.43;;;2.42;;
73585;SDS011;61865;50.232;18.614;2023-05-29T11:17:43;5.75;;;2.30;;
73585;SDS011;61865;50.232;18.614;2023-05-29T11:20:08;6.75;;;2.58;;
73585;SDS011;61865;50.232;18.614;2023-05-29T11:22:45;5.72;;;2.25;;
73585;SDS011;61865;50.232;18.614;2023-05-29T11:25:17;5.63;;;2.65;;
73585;SDS011;61865;50.232;18.614;2023-05-29T11:27:43;4.28;;;2.13;;
73585;SDS011;61865;50.232;18.614;2023-05-29T11:30:06;6.28;;;2.30;;
73585;SDS011;61865;50.232;18.614;2023-05-29T11:32:28;4.65;;;2.50;;
73585;SDS011;61865;50.232;18.614;2023-05-29T11:34:54;7.10;;;2.67;;
73585;SDS011;61865;50.232;18.614;2023-05-29T11:37:20;6.15;;;2.40;;
73585;SDS011;61865;50.232;18.614;2023-05-29T11:39:45;4.72;;;2.42;;
73585;SDS011;61865;50.232;18.614;2023-05-29T11:42:07;8.95;;;2.70;;
73585;SDS011;61865;50.232;18.614;2023-05-29T11:44:29;5.28;;;2.40;;
73585;SDS011;61865;50.232;18.614;2023-05-29T11:46:59;6.90;;;2.50;;
73585;SDS011;61865;50.232;18.614;2023-05-29T11:51:48;7.53;;;2.70;;
73585;SDS011;61865;50.232;18.614;2023-05-29T11:54:13;7.85;;;2.30;;
73585;SDS011;61865;50.232;18.614;2023-05-29T11:56:35;4.53;;;2.13;;
73585;SDS011;61865;50.232;18.614;2023-05-29T11:59:00;6.00;;;2.70;;
73585;SDS011;61865;50.232;18.614;2023-05-29T12:01:25;11.40;;;2.72;;
73585;SDS011;61865;50.232;18.614;2023-05-29T12:03:48;9.32;;;2.90;;
73585;SDS011;61865;50.232;18.614;2023-05-29T12:06:11;6.00;;;2.95;;
73585;SDS011;61865;50.232;18.614;2023-05-29T12:08:33;7.28;;;2.45;;
73585;SDS011;61865;50.232;18.614;2023-05-29T12:10:56;5.28;;;2.15;;
73585;SDS011;61865;50.232;18.614;2023-05-29T12:13:19;4.80;;;2.30;;
73585;SDS011;61865;50.232;18.614;2023-05-29T12:15:41;4.93;;;2.25;;
73585;SDS011;61865;50.232;18.614;2023-05-29T12:18:03;5.70;;;2.40;;
73585;SDS011;61865;50.232;18.614;2023-05-29T12:20:25;5.30;;;2.42;;
73585;SDS011;61865;50.232;18.614;2023-05-29T12:22:47;5.22;;;2.60;;
73585;SDS011;61865;50.232;18.614;2023-05-29T12:25:10;5.43;;;2.40;;
73585;SDS011;61865;50.232;18.614;2023-05-29T12:27:34;6.57;;;2.33;;
73585;SDS011;61865;50.232;18.614;2023-05-29T12:30:01;7.47;;;2.30;;
73585;SDS011;61865;50.232;18.614;2023-05-29T12:32:23;6.32;;;2.20;;
73585;SDS011;61865;50.232;18.614;2023-05-29T12:34:48;5.00;;;2.50;;
73585;SDS011;61865;50.232;18.614;2023-05-29T12:37:10;7.30;;;2.58;;
73585;SDS011;61865;50.232;18.614;2023-05-29T12:39:35;6.82;;;2.90;;
73585;SDS011;61865;50.232;18.614;2023-05-29T12:41:57;7.20;;;2.40;;
73585;SDS011;61865;50.232;18.614;2023-05-29T12:44:20;6.03;;;2.60;;
73585;SDS011;61865;50.232;18.614;2023-05-29T12:46:42;11.82;;;2.55;;
73585;SDS011;61865;50.232;18.614;2023-05-29T12:49:11;5.13;;;2.28;;
73585;SDS011;61865;50.232;18.614;2023-05-29T12:51:33;6.07;;;2.20;;
73585;SDS011;61865;50.232;18.614;2023-05-29T12:53:55;7.90;;;2.53;;
73585;SDS011;61865;50.232;18.614;2023-05-29T12:56:18;4.78;;;2.28;;
73585;SDS011;61865;50.232;18.614;2023-05-29T12:58:40;7.80;;;2.53;;
73585;SDS011;61865;50.232;18.614;2023-05-29T13:01:04;7.18;;;2.30;;
73585;SDS011;61865;50.232;18.614;2023-05-29T13:03:27;5.30;;;2.58;;
73585;SDS011;61865;50.232;18.614;2023-05-29T13:05:50;4.18;;;2.25;;
73585;SDS011;61865;50.232;18.614;2023-05-29T13:08:13;9.43;;;2.75;;
73585;SDS011;61865;50.232;18.614;2023-05-29T13:10:35;5.53;;;2.50;;
73585;SDS011;61865;50.232;18.614;2023-05-29T13:12:57;3.85;;;2.25;;
73585;SDS011;61865;50.232;18.614;2023-05-29T13:15:19;5.47;;;2.47;;
73585;SDS011;61865;50.232;18.614;2023-05-29T13:17:43;7.13;;;2.65;;
73585;SDS011;61865;50.232;18.614;2023-05-29T13:20:06;9.10;;;2.60;;
73585;SDS011;61865;50.232;18.614;2023-05-29T13:22:30;11.00;;;2.42;;
73585;SDS011;61865;50.232;18.614;2023-05-29T13:24:52;6.07;;;2.67;;
73585;SDS011;61865;50.232;18.614;2023-05-29T13:27:14;6.07;;;2.50;;
73585;SDS011;61865;50.232;18.614;2023-05-29T13:29:36;6.63;;;2.78;;
73585;SDS011;61865;50.232;18.614;2023-05-29T13:31:58;6.93;;;2.92;;
73585;SDS011;61865;50.232;18.614;2023-05-29T13:34:22;8.98;;;2.88;;
73585;SDS011;61865;50.232;18.614;2023-05-29T13:36:48;6.45;;;2.65;;
73585;SDS011;61865;50.232;18.614;2023-05-29T13:39:10;6.07;;;2.60;;
73585;SDS011;61865;50.232;18.614;2023-05-29T13:41:32;8.85;;;2.72;;
73585;SDS011;61865;50.232;18.614;2023-05-29T13:43:55;8.40;;;2.88;;
73585;SDS011;61865;50.232;18.614;2023-05-29T13:46:17;7.75;;;2.88;;
73585;SDS011;61865;50.232;18.614;2023-05-29T13:48:39;7.68;;;2.88;;
73585;SDS011;61865;50.232;18.614;2023-05-29T13:51:02;5.97;;;2.40;;
73585;SDS011;61865;50.232;18.614;2023-05-29T13:53:24;5.45;;;2.40;;
73585;SDS011;61865;50.232;18.614;2023-05-29T13:55:46;5.10;;;2.55;;
73585;SDS011;61865;50.232;18.614;2023-05-29T13:58:08;4.93;;;2.53;;
73585;SDS011;61865;50.232;18.614;2023-05-29T14:00:30;8.32;;;2.45;;
73585;SDS011;61865;50.232;18.614;2023-05-29T14:02:52;13.18;;;3.03;;
73585;SDS011;61865;50.232;18.614;2023-05-29T14:05:14;7.13;;;2.88;;
73585;SDS011;61865;50.232;18.614;2023-05-29T14:07:38;6.10;;;2.92;;
73585;SDS011;61865;50.232;18.614;2023-05-29T14:10:00;9.40;;;3.22;;
73585;SDS011;61865;50.232;18.614;2023-05-29T14:12:22;7.32;;;3.03;;
73585;SDS011;61865;50.232;18.614;2023-05-29T14:14:44;5.75;;;2.80;;